Time;durP1;ratioP1;P1;durP2;ratioP2;P2;SDS_P1;SDS_P2;PMS_P1;PMS_P2;Temp;Humidity;BMP_temperature;BMP_pressure;BME280_temperature;BME280_humidity;BME280_pressure;Samples;Min_cycle;Max_cycle;Signal;HPM_P1;HPM_P2
2020/12/05 00:01:16;;;;;;;4.05;3.80;;;;;;;0.05;4.46;3268994.50;5074270;28;20400;-82
2020/12/05 00:03:42;;;;;;;4.35;3.58;;;;;;;0.05;4.46;3255377.50;5074285;28;20024;-83
2020/12/05 00:06:07;;;;;;;9.43;3.13;;;;;;;0.05;4.46;3271912.50;5074559;28;20032;-82
2020/12/05 00:08:33;;;;;;;7.90;4.85;;;;;;;0.05;4.46;3284557.25;5074505;28;20036;-83
2020/12/05 00:10:59;;;;;;;3.13;2.85;;;;;;;0.05;4.46;3278721.25;5074084;28;20574;-83
2020/12/05 00:13:24;;;;;;;5.53;4.25;;;;;;;0.05;4.46;3277748.50;5074285;28;20032;-83
2020/12/05 00:15:50;;;;;;;7.25;2.72;;;;;;;0.05;4.46;3266076.50;5073925;28;20020;-83
2020/12/05 00:18:18;;;;;;;8.40;5.35;;;;;;;0.05;4.46;3306928.75;5074048;28;20032;-84
2020/12/05 00:20:44;;;;;;;6.35;3.70;;;;;;;0.05;4.49;3423651.00;5074294;28;20146;-84
2020/12/05 00:23:09;;;;;;;2.65;2.50;;;;;;;0.05;4.50;3487850.50;5073850;28;20492;-83
2020/12/05 00:25:35;;;;;;;6.45;3.65;;;;;;;0.05;4.50;3563723.50;5073680;28;20059;-83
2020/12/05 00:28:00;;;;;;;5.35;3.42;;;;;;;0.05;4.50;3585124.00;5073810;28;20024;-84
2020/12/05 00:30:28;;;;;;;4.53;3.00;;;;;;;0.05;4.50;3581233.00;5073909;28;20040;-84
2020/12/05 00:32:57;;;;;;;7.30;4.93;;;;;;;0.05;4.49;3571505.50;5073904;28;20028;-83
2020/12/05 00:35:22;;;;;;;6.38;4.97;;;;;;;0.05;4.48;3567614.50;5073414;28;20241;-83
2020/12/05 00:37:47;;;;;;;3.80;3.58;;;;;;;0.05;4.48;3564696.25;5073687;28;20123;-83
2020/12/05 00:40:13;;;;;;;3.28;2.97;;;;;;;0.05;4.49;3566641.75;5073867;28;20472;-84
2020/12/05 00:42:38;;;;;;;6.80;6.18;;;;;;;0.05;4.49;3575396.50;5073956;28;20380;-83
2020/12/05 00:45:04;;;;;;;6.05;4.88;;;;;;;0.05;4.49;3597770.00;5073514;28;20029;-85
2020/12/05 00:47:29;;;;;;;4.65;4.28;;;;;;;0.05;4.49;3653217.50;5073706;28;20024;-84
2020/12/05 00:49:55;;;;;;;8.13;4.45;;;;;;;0.05;4.50;3671700.25;5073811;28;20039;-83
2020/12/05 00:52:24;;;;;;;3.63;3.33;;;;;;;0.05;4.50;3678509.75;5073572;28;20025;-85
2020/12/05 00:54:49;;;;;;;10.07;5.07;;;;;;;0.05;4.49;3690183.25;5073415;28;20060;-83
2020/12/05 00:57:15;;;;;;;2.72;2.55;;;;;;;0.05;4.49;3715475.75;5073834;28;20111;-83
2020/12/05 00:59:40;;;;;;;4.68;3.35;;;;;;;0.05;4.49;3714503.00;5073234;28;20036;-83
2020/12/05 01:02:05;;;;;;;5.78;5.32;;;;;;;0.05;4.49;3717421.25;5073534;28;20125;-84
2020/12/05 01:04:31;;;;;;;7.32;6.70;;;;;;;0.05;4.49;3755360.50;5072852;28;20025;-83
2020/12/05 01:06:56;;;;;;;9.20;6.88;;;;;;;0.05;4.49;3764115.75;5073014;28;20017;-84
2020/12/05 01:09:22;;;;;;;7.03;5.88;;;;;;;0.05;4.50;3781626.25;5073671;28;20035;-83
2020/12/05 01:11:47;;;;;;;6.32;5.85;;;;;;;0.05;4.50;3799137.00;5073115;28;20059;-84
2020/12/05 01:14:13;;;;;;;6.22;5.63;;;;;;;0.05;4.50;3820539.00;5073467;28;20031;-84
2020/12/05 01:16:39;;;;;;;6.30;5.80;;;;;;;0.05;4.50;3824430.25;5073485;28;20021;-84
2020/12/05 01:19:04;;;;;;;4.50;4.10;;;;;;;0.05;4.51;3874044.75;5073498;28;20104;-84
2020/12/05 01:21:30;;;;;;;2.25;2.10;;;;;;;0.05;4.51;3914904.25;5073280;28;20043;-83
2020/12/05 01:23:55;;;;;;;5.78;5.28;;;;;;;0.05;4.51;3949927.00;5072789;28;20127;-84
2020/12/05 01:26:21;;;;;;;2.15;2.03;;;;;;;0.05;4.52;3983977.50;5072802;28;20031;-83
2020/12/05 01:28:47;;;;;;;6.32;5.82;;;;;;;0.05;4.52;3997597.50;5072806;28;20097;-84
2020/12/05 01:31:12;;;;;;;4.80;4.18;;;;;;;0.05;4.53;4003434.75;5072665;28;20024;-83
2020/12/05 01:33:38;;;;;;;2.67;2.08;;;;;;;0.05;4.53;4016082.25;5072696;28;20032;-83
2020/12/05 01:36:04;;;;;;;7.55;6.95;;;;;;;0.05;4.52;3998570.50;5073031;28;20515;-84
2020/12/05 01:38:29;;;;;;;9.55;5.72;;;;;;;0.05;4.52;3984950.25;5072638;28;20033;-83
2020/12/05 01:40:57;;;;;;;5.65;3.00;;;;;;;0.05;4.52;3955764.25;5072523;28;20031;-82
2020/12/05 01:43:24;;;;;;;5.63;5.10;;;;;;;0.05;4.52;3945062.75;5072373;28;20028;-83
2020/12/05 01:45:50;;;;;;;3.50;3.30;;;;;;;0.05;4.52;4011218.00;5072165;28;20029;-84
2020/12/05 01:48:19;;;;;;;5.53;4.97;;;;;;;0.05;4.52;4045268.75;5072149;28;20055;-83
2020/12/05 01:50:45;;;;;;;5.18;4.88;;;;;;;0.05;4.52;4040404.50;5072325;28;20028;-82
2020/12/05 01:53:15;;;;;;;6.78;6.25;;;;;;;0.05;4.52;3984950.25;5072180;28;20028;-83
2020/12/05 01:55:45;;;;;;;13.40;6.80;;;;;;;0.05;4.52;3928524.25;5072123;28;20120;-82
2020/12/05 01:58:11;;;;;;;11.18;8.98;;;;;;;0.05;4.52;3885718.75;5072149;28;20043;-83
2020/12/05 02:00:37;;;;;;;5.25;4.40;;;;;;;0.05;4.51;3870153.50;5072016;28;20515;-83
2020/12/05 02:03:03;;;;;;;7.22;6.55;;;;;;;0.05;4.51;3857506.50;5072414;28;20039;-83
2020/12/05 02:05:28;;;;;;;8.68;7.93;;;;;;;0.05;4.51;3844859.75;5071842;28;20029;-83
2020/12/05 02:08:01;;;;;;;15.98;7.40;;;;;;;0.05;4.51;3835131.50;5072015;28;20078;-84
2020/12/05 02:10:28;;;;;;;3.33;3.13;;;;;;;0.05;4.51;3827348.75;5072833;28;20035;-83
2020/12/05 02:13:02;;;;;;;4.47;4.13;;;;;;;0.05;4.50;3805946.75;5072098;28;20078;-82
2020/12/05 02:15:30;;;;;;;12.73;6.80;;;;;;;0.05;4.50;3809838.00;5071951;28;20025;-83
2020/12/05 02:18:02;;;;;;;22.02;5.72;;;;;;;0.05;4.51;3804973.75;5071971;28;20093;-83
2020/12/05 02:20:29;;;;;;;4.57;4.18;;;;;;;0.05;4.51;3812756.50;5071916;28;20096;-83
2020/12/05 02:22:57;;;;;;;7.53;5.85;;;;;;;0.05;4.51;3814702.00;5072172;28;20032;-83
2020/12/05 02:25:22;;;;;;;6.80;5.13;;;;;;;0.05;4.52;3811783.50;5071545;28;20051;-83
2020/12/05 02:27:48;;;;;;;5.57;5.18;;;;;;;0.05;4.52;3795245.75;5072046;28;20127;-83
2020/12/05 02:30:14;;;;;;;22.65;6.65;;;;;;;0.05;4.51;3769952.50;5071613;28;20036;-83
2020/12/05 02:32:39;;;;;;;15.10;6.88;;;;;;;0.05;4.52;3809838.00;5071599;28;20035;-83
2020/12/05 02:35:06;;;;;;;8.18;4.70;;;;;;;0.05;4.53;3859452.25;5072143;28;20074;-82
2020/12/05 02:37:37;;;;;;;2.53;2.42;;;;;;;0.05;4.54;3880854.50;5071920;28;20036;-83
2020/12/05 02:40:03;;;;;;;3.85;3.65;;;;;;;0.05;4.54;3877936.00;5071654;28;20091;-83
2020/12/05 02:42:29;;;;;;;7.00;4.13;;;;;;;0.05;4.54;3859452.25;5071658;28;20033;-83
2020/12/05 02:44:54;;;;;;;5.93;4.60;;;;;;;0.05;4.53;3818593.25;5071676;28;20063;-83
2020/12/05 02:47:21;;;;;;;9.82;5.10;;;;;;;0.05;4.52;3784544.75;5071552;28;20479;-85
2020/12/05 02:49:48;;;;;;;8.10;7.18;;;;;;;0.05;4.51;3731040.50;5072120;28;20035;-84
2020/12/05 02:52:14;;;;;;;5.32;4.97;;;;;;;0.05;4.51;3698938.75;5071645;28;20025;-83
2020/12/05 02:54:40;;;;;;;9.57;7.40;;;;;;;0.05;4.51;3686292.50;5071618;28;20039;-83
2020/12/05 02:57:06;;;;;;;8.98;5.45;;;;;;;0.05;4.51;3689210.75;5071579;28;20028;-83
2020/12/05 02:59:32;;;;;;;6.22;5.40;;;;;;;0.05;4.52;3675592.00;5076148;28;20020;-83
2020/12/05 03:01:58;;;;;;;9.68;6.63;;;;;;;0.05;4.51;3676564.75;5075513;28;20032;-83
2020/12/05 03:04:24;;;;;;;5.53;4.97;;;;;;;0.05;4.51;3669755.25;5075516;28;20546;-83
2020/12/05 03:06:50;;;;;;;7.53;6.82;;;;;;;0.05;4.51;3676564.75;5075745;28;20099;-83
2020/12/05 03:09:16;;;;;;;10.32;5.03;;;;;;;0.05;4.51;3685319.75;5075234;28;20021;-82
2020/12/05 03:11:42;;;;;;;4.57;4.28;;;;;;;0.05;4.52;3688238.00;5075187;28;20089;-83
2020/12/05 03:14:07;;;;;;;9.48;8.55;;;;;;;0.05;4.52;3694074.75;5075262;28;20035;-84
2020/12/05 03:16:33;;;;;;;6.70;5.30;;;;;;;0.05;4.51;3694074.75;5075352;28;20044;-83
2020/12/05 03:18:59;;;;;;;11.52;7.82;;;;;;;0.05;4.51;3687265.25;5075851;28;20032;-83
2020/12/05 03:21:24;;;;;;;8.05;3.35;;;;;;;0.05;4.50;3677537.50;5075088;28;20028;-82
2020/12/05 03:23:50;;;;;;;19.08;8.90;;;;;;;0.05;4.51;3713530.50;5076227;28;20094;-84
2020/12/05 03:26:16;;;;;;;6.22;4.93;;;;;;;0.05;4.52;3732013.75;5076232;28;20033;-83
2020/12/05 03:28:42;;;;;;;9.70;6.82;;;;;;;0.05;4.52;3754387.75;5075114;28;20472;-84
2020/12/05 03:31:11;;;;;;;6.15;5.55;;;;;;;0.05;4.52;3774816.50;5074971;28;20054;-82
2020/12/05 03:33:39;;;;;;;5.28;4.90;;;;;;;0.05;4.52;3786490.50;5075088;28;20115;-83
2020/12/05 03:36:04;;;;;;;4.47;4.20;;;;;;;0.05;4.52;3771898.75;5074911;28;20029;-83
2020/12/05 03:38:30;;;;;;;4.88;4.43;;;;;;;0.05;4.52;3760225.00;5074705;28;20420;-83
2020/12/05 03:44:35;;;;;;;7.75;4.90;;;;;;;0.05;4.51;3776762.75;5075722;28;20454;-83
2020/12/05 03:47:01;;;;;;;3.90;3.63;;;;;;;0.05;4.51;3761197.75;5074674;28;20120;-83
2020/12/05 03:49:31;;;;;;;15.70;4.60;;;;;;;0.05;4.51;3744660.00;5074490;28;20064;-83
2020/12/05 03:52:00;;;;;;;12.23;5.65;;;;;;;0.05;4.51;3729095.25;5074872;28;20494;-83
2020/12/05 03:54:26;;;;;;;2.40;2.30;;;;;;;0.05;4.51;3700884.25;5074859;28;20020;-83
2020/12/05 03:56:51;;;;;;;5.88;4.97;;;;;;;0.05;4.50;3680456.25;5074860;28;20097;-83
2020/12/05 03:59:17;;;;;;;8.27;5.28;;;;;;;0.05;4.50;3672674.00;5074412;28;20542;-83
2020/12/05 04:01:42;;;;;;;7.97;6.75;;;;;;;0.05;4.50;3651273.00;5074324;28;20047;-82
2020/12/05 04:04:08;;;;;;;7.47;5.05;;;;;;;0.05;4.50;3655164.00;5074278;28;20068;-82
2020/12/05 04:06:33;;;;;;;9.45;5.68;;;;;;;0.05;4.51;3688238.50;5074564;28;20063;-82
2020/12/05 04:08:59;;;;;;;18.05;4.43;;;;;;;0.05;4.51;3729095.25;5073757;28;20027;-82
2020/12/05 04:11:24;;;;;;;9.60;7.13;;;;;;;0.05;4.52;3775789.75;5073915;28;20485;-82
2020/12/05 04:13:50;;;;;;;10.02;5.60;;;;;;;0.05;4.52;3786490.75;5074181;28;20029;-82
2020/12/05 04:16:15;;;;;;;5.70;5.25;;;;;;;0.05;4.52;3771898.75;5073977;28;20123;-82
2020/12/05 04:18:41;;;;;;;9.75;5.07;;;;;;;0.05;4.51;3765089.00;5073876;28;20028;-82
2020/12/05 04:21:06;;;;;;;10.52;7.28;;;;;;;0.05;4.51;3763143.50;5073875;28;20036;-82
2020/12/05 04:23:32;;;;;;;4.13;3.83;;;;;;;0.05;4.51;3762170.50;5073817;28;20032;-82
2020/12/05 04:25:57;;;;;;;7.97;6.22;;;;;;;0.05;4.51;3772871.50;5073813;28;20083;-81
2020/12/05 04:28:23;;;;;;;7.22;6.25;;;;;;;0.05;4.51;3765089.00;5073757;28;20035;-82
2020/12/05 04:30:48;;;;;;;10.13;4.75;;;;;;;0.05;4.51;3739796.00;5073806;28;20025;-82
2020/12/05 04:33:14;;;;;;;6.65;3.25;;;;;;;0.05;4.50;3721313.50;5074074;28;20528;-83
2020/12/05 04:35:39;;;;;;;3.80;3.50;;;;;;;0.05;4.50;3684347.50;5073786;28;20091;-82
2020/12/05 04:38:05;;;;;;;9.70;5.57;;;;;;;0.05;4.50;3671701.25;5073640;28;20028;-82
2020/12/05 04:40:31;;;;;;;3.38;3.20;;;;;;;0.05;4.51;3669755.75;5073700;28;20028;-82
2020/12/05 04:43:00;;;;;;;8.73;6.68;;;;;;;0.05;4.51;3664891.75;5073733;28;20032;-84
2020/12/05 04:45:27;;;;;;;6.72;6.15;;;;;;;0.05;4.51;3672674.00;5073410;28;20519;-83
2020/12/05 04:47:55;;;;;;;9.23;4.85;;;;;;;0.05;4.51;3690184.00;5073562;28;20032;-82
2020/12/05 04:50:23;;;;;;;5.97;4.47;;;;;;;0.05;4.50;3687265.75;5073475;28;20032;-82
2020/12/05 04:52:49;;;;;;;;;;;;;;;0.05;4.50;3666837.25;5074464;28;20181;-83
2020/12/05 04:55:16;;;;;;;3.15;2.97;;;;;;;0.05;4.50;3642518.00;5073670;28;20002;-83
2020/12/05 04:57:51;;;;;;;3.03;2.25;;;;;;;0.05;4.50;3656136.75;5073364;28;20174;-83
2020/12/05 05:00:17;;;;;;;5.45;5.05;;;;;;;0.05;4.50;3661973.50;5073873;28;20047;-83
2020/12/05 05:02:44;;;;;;;3.58;3.35;;;;;;;0.05;4.50;3659055.00;5073269;28;20028;-82
2020/12/05 05:05:12;;;;;;;4.63;4.03;;;;;;;0.05;4.50;3664891.75;5073083;28;20029;-82
2020/12/05 05:07:57;;;;;;;4.75;4.30;;;;;;;0.05;4.50;3684347.50;5073126;28;20021;-83
2020/12/05 05:10:30;;;;;;;4.72;4.32;;;;;;;0.05;4.50;3710612.50;5072614;28;20123;-82
2020/12/05 05:13:12;;;;;;;5.88;4.50;;;;;;;0.05;4.50;3702830.25;5073433;28;20024;-83
2020/12/05 05:15:39;;;;;;;4.55;3.75;;;;;;;0.05;4.50;3696993.50;5073651;28;20028;-83
2020/12/05 05:18:05;;;;;;;7.15;6.38;;;;;;;0.05;4.50;3693102.50;5072778;28;20036;-82
2020/12/05 05:20:37;;;;;;;9.15;4.65;;;;;;;0.05;4.50;3694075.25;5072752;28;20089;-82
2020/12/05 05:23:20;;;;;;;2.13;2.03;;;;;;;0.05;4.50;3682401.75;5072875;28;20031;-83
2020/12/05 05:25:59;;;;;;;5.93;5.35;;;;;;;0.05;4.50;3666837.25;5072468;28;20444;-82
2020/12/05 05:28:31;;;;;;;7.90;6.90;;;;;;;0.05;4.50;3681429.00;5073361;28;20089;-83
2020/12/05 05:31:10;;;;;;;3.63;3.33;;;;;;;0.05;4.50;3693102.50;5072539;28;20040;-82
2020/12/05 05:33:50;;;;;;;4.35;3.95;;;;;;;0.05;4.50;3690184.00;5072748;28;20028;-82
2020/12/05 05:36:18;;;;;;;5.88;5.40;;;;;;;0.05;4.50;3683374.50;5073459;28;20032;-83
2020/12/05 05:38:44;;;;;;;4.28;3.83;;;;;;;0.05;4.50;3679483.50;5072895;28;20029;-83
2020/12/05 05:41:19;;;;;;;5.40;4.93;;;;;;;0.05;4.50;3691157.00;5072505;28;20078;-84
2020/12/05 05:44:01;;;;;;;6.75;6.13;;;;;;;0.05;4.50;3684347.50;5072430;28;20021;-84
2020/12/05 05:46:36;;;;;;;12.75;6.25;;;;;;;0.05;4.50;3698939.25;5072101;28;20028;-85
2020/12/05 05:49:03;;;;;;;6.47;5.97;;;;;;;0.05;4.50;3733959.75;5072486;28;20024;-84
2020/12/05 05:51:49;;;;;;;3.10;2.80;;;;;;;0.05;4.50;3759252.50;5072315;28;20036;-84
2020/12/05 05:54:15;;;;;;;6.07;5.45;;;;;;;0.05;4.51;3774817.50;5072324;28;20494;-83
2020/12/05 05:57:01;;;;;;;2.40;2.28;;;;;;;0.05;4.51;3813730.25;5072291;28;20024;-81
2020/12/05 05:59:29;;;;;;;9.10;5.20;;;;;;;0.05;4.52;3839023.50;5071406;28;20488;-82
2020/12/05 06:01:55;;;;;;;6.32;5.40;;;;;;;0.05;4.52;3861398.75;5072509;28;20064;-82
2020/12/05 06:04:38;;;;;;;10.07;4.97;;;;;;;0.05;4.51;3847779.00;5071866;28;20028;-81
2020/12/05 06:07:06;;;;;;;7.88;4.57;;;;;;;0.05;4.51;3837078.00;5072237;28;20046;-82
2020/12/05 06:09:43;;;;;;;6.53;4.15;;;;;;;0.05;4.51;3840969.25;5072558;28;20032;-83
2020/12/05 06:12:10;;;;;;;3.03;2.83;;;;;;;0.05;4.51;3839996.50;5072803;28;20407;-84
2020/12/05 06:14:37;;;;;;;4.38;4.10;;;;;;;0.05;4.50;3823458.50;5072054;28;20479;-83
2020/12/05 06:17:06;;;;;;;2.97;2.75;;;;;;;0.05;4.50;3810811.75;5071946;28;20036;-84
2020/12/05 06:19:32;;;;;;;3.85;3.53;;;;;;;0.05;4.49;3802056.25;5072400;28;20025;-83
2020/12/05 06:21:58;;;;;;;12.65;8.00;;;;;;;0.05;4.50;3783572.75;5072622;28;20059;-83
2020/12/05 06:24:47;;;;;;;13.80;3.90;;;;;;;0.05;4.50;3768981.00;5071092;28;20496;-90
2020/12/05 06:27:25;;;;;;;8.23;5.85;;;;;;;0.05;4.50;3759253.00;5071932;28;20025;-85
2020/12/05 06:29:51;;;;;;;5.18;3.38;;;;;;;0.05;4.50;3751470.50;5071709;28;20036;-87
2020/12/05 06:32:44;;;;;;;6.00;5.20;;;;;;;0.05;4.49;3726177.75;5071271;28;20028;-88
2020/12/05 06:35:19;;;;;;;8.65;6.07;;;;;;;0.05;4.49;3695048.50;5068363;28;20044;-85
2020/12/05 06:37:46;;;;;;;4.55;4.30;;;;;;;0.05;4.48;3660028.25;5071213;28;20025;-86
2020/12/05 06:40:12;;;;;;;14.73;4.72;;;;;;;0.05;4.48;3638627.25;5071975;28;20032;-85
2020/12/05 06:42:39;;;;;;;3.72;3.47;;;;;;;0.05;4.49;3625981.25;5072123;28;20032;-85
2020/12/05 06:45:06;;;;;;;4.63;4.43;;;;;;;0.05;4.49;3616253.75;5071549;28;20563;-86
2020/12/05 06:47:34;;;;;;;4.40;4.10;;;;;;;0.05;4.48;3596799.00;5071260;28;20094;-84
2020/12/05 06:50:00;;;;;;;4.35;3.97;;;;;;;0.05;4.48;3575398.25;5071625;28;20100;-84
2020/12/05 06:52:26;;;;;;;8.88;5.68;;;;;;;0.05;4.48;3551079.50;5071589;28;20032;-84
2020/12/05 06:54:52;;;;;;;5.57;5.18;;;;;;;0.05;4.48;3528706.50;5071440;28;20040;-85
2020/12/05 06:57:18;;;;;;;3.42;3.20;;;;;;;0.05;4.48;3519952.00;5071642;28;20037;-90
2020/12/05 06:59:43;;;;;;;2.22;2.10;;;;;;;0.05;4.48;3478124.50;5071591;28;20050;-87
2020/12/05 07:02:31;;;;;;;1.77;1.77;;;;;;;0.05;4.48;3411980.50;5071867;28;20141;-85
2020/12/05 07:05:19;;;;;;;3.20;3.05;;;;;;;0.05;4.47;3342919.25;5071432;28;20031;-83
2020/12/05 07:07:58;;;;;;;7.68;5.25;;;;;;;0.05;4.46;3310820.75;5071320;28;20064;-86
2020/12/05 07:10:59;;;;;;;5.40;4.85;;;;;;;0.05;4.47;3286504.00;5071266;28;20459;-84
2020/12/05 07:13:27;;;;;;;3.42;3.28;;;;;;;0.05;4.47;3299148.50;5071679;28;20040;-86
2020/12/05 07:16:09;;;;;;;10.43;3.83;;;;;;;0.05;4.46;3301094.00;5071296;28;20036;-86
2020/12/05 07:18:37;;;;;;;9.63;5.72;;;;;;;0.05;4.46;3275804.50;5071173;28;20496;-85
2020/12/05 07:21:04;;;;;;;5.05;4.50;;;;;;;0.05;4.46;3256351.50;5071578;28;20404;-87
2020/12/05 07:23:29;;;;;;;3.83;3.55;;;;;;;0.05;4.44;3233980.25;5071235;28;20029;-91
2020/12/05 07:25:57;;;;;;;4.13;3.58;;;;;;;0.05;4.45;3248570.25;5070909;28;20107;-82
2020/12/05 07:28:22;;;;;;;4.93;4.30;;;;;;;0.05;4.46;3270941.25;5071491;28;20115;-87
2020/12/05 07:30:50;;;;;;;27.48;6.07;;;;;;;0.05;4.46;3299148.50;5071007;28;20285;-84
2020/12/05 07:33:16;;;;;;;5.07;4.53;;;;;;;0.05;4.47;3324438.25;5070826;28;20029;-85
2020/12/05 07:35:41;;;;;;;9.20;4.90;;;;;;;0.05;4.48;3351673.25;5071182;28;20031;-84
2020/12/05 07:38:15;;;;;;;7.10;6.45;;;;;;;0.05;4.48;3367236.25;5071030;28;20037;-86
2020/12/05 07:40:41;;;;;;;12.27;7.97;;;;;;;0.05;4.48;3364318.25;5070856;28;20021;-90
2020/12/05 07:43:18;;;;;;;8.48;5.90;;;;;;;0.05;4.47;3373072.50;5070903;28;20476;-85
2020/12/05 07:45:45;;;;;;;8.98;6.38;;;;;;;0.05;4.47;3360427.50;5073397;28;20028;-90
2020/12/05 07:48:16;;;;;;;4.90;4.40;;;;;;;0.05;4.47;3339028.50;5074591;28;20024;-89
2020/12/05 07:50:42;;;;;;;3.03;2.92;;;;;;;0.05;4.48;3370154.50;5074645;28;20054;-89
2020/12/05 07:53:35;;;;;;;10.88;10.02;;;;;;;0.05;4.47;3354591.50;5074933;28;20150;-91
2020/12/05 07:56:15;;;;;;;25.40;14.55;;;;;;;0.05;4.47;3331247.00;5074957;28;20024;-92
2020/12/05 07:58:45;;;;;;;14.27;12.77;;;;;;;0.05;4.47;3337083.00;5074885;28;20082;-89
2020/12/05 08:01:24;;;;;;;17.10;15.13;;;;;;;0.05;4.47;3348755.25;5074678;28;20143;-91
2020/12/05 08:04:20;;;;;;;16.63;15.05;;;;;;;0.05;4.47;3341946.50;5074861;28;20141;-88
2020/12/05 08:07:05;;;;;;;27.52;21.42;;;;;;;0.05;4.47;3321520.25;5074173;28;20111;-92
2020/12/05 08:09:36;;;;;;;11.25;9.18;;;;;;;0.05;4.47;3279695.25;5074765;28;20063;-92
2020/12/05 08:12:05;;;;;;;24.35;16.55;;;;;;;0.05;4.46;3305957.50;5074516;28;20050;-91
2020/12/05 08:14:33;;;;;;;23.95;17.10;;;;;;;0.05;4.47;3317629.50;5075592;28;20047;-91
2020/12/05 08:17:02;;;;;;;35.92;21.25;;;;;;;0.05;4.47;3303039.25;5073870;28;20031;-90
2020/12/05 08:19:29;;;;;;;22.05;19.83;;;;;;;0.05;4.47;3315684.00;5073202;28;20044;-91
2020/12/05 08:21:59;;;;;;;28.15;17.13;;;;;;;0.05;4.48;3387663.00;5073000;28;20028;-89
2020/12/05 08:24:25;;;;;;;23.73;21.33;;;;;;;0.05;4.49;3425598.25;5072895;28;20094;-90
2020/12/05 08:26:51;;;;;;;26.30;16.85;;;;;;;0.05;4.49;3423653.00;5072963;28;20029;-90
2020/12/05 08:29:19;;;;;;;16.52;14.23;;;;;;;0.05;4.48;3421707.50;5074312;28;20039;-89
2020/12/05 08:31:46;;;;;;;12.40;11.10;;;;;;;0.05;4.48;3388635.50;5074196;28;20488;-89
2020/12/05 08:34:11;;;;;;;14.00;10.15;;;;;;;0.05;4.48;3387663.50;5074055;28;20028;-91
2020/12/05 08:36:43;;;;;;;11.45;9.40;;;;;;;0.05;4.47;3352646.50;5073769;28;20032;-91
2020/12/05 08:39:10;;;;;;;16.15;14.45;;;;;;;0.05;4.47;3325411.25;5074151;28;20037;-88
2020/12/05 08:41:47;;;;;;;17.08;11.57;;;;;;;0.05;4.47;3308876.25;5074513;28;20032;-89
2020/12/05 08:44:15;;;;;;;19.03;10.43;;;;;;;0.05;4.46;3266079.00;5073933;28;20039;-89
2020/12/05 08:46:41;;;;;;;14.80;8.27;;;;;;;0.05;4.47;3264133.50;5073919;28;20111;-90
2020/12/05 08:49:18;;;;;;;10.88;8.23;;;;;;;0.05;4.47;3232036.00;5073997;28;20032;-88
2020/12/05 08:51:51;;;;;;;9.20;8.07;;;;;;;0.05;4.46;3169786.75;5074010;28;20126;-91
2020/12/05 08:54:17;;;;;;;18.77;8.35;;;;;;;0.05;4.45;3059881.00;5074299;28;20025;-89
2020/12/05 08:56:43;;;;;;;10.57;9.05;;;;;;;0.05;4.44;2954841.75;5073583;28;20496;-89
2020/12/05 08:59:09;;;;;;;6.45;5.88;;;;;;;0.05;4.43;2867311.50;5073644;28;20031;-89
2020/12/05 09:01:43;;;;;;;19.08;8.13;;;;;;;0.05;4.43;2829382.50;5073533;28;20024;-90
2020/12/05 09:04:25;;;;;;;23.67;9.95;;;;;;;0.05;4.43;2851751.00;5074195;28;20028;-89
2020/12/05 09:06:50;;;;;;;7.63;4.05;;;;;;;0.05;4.45;2930527.50;5073603;28;20024;-91
2020/12/05 09:09:28;;;;;;;12.77;7.13;;;;;;;0.05;4.45;2912049.00;5073640;28;20021;-89
2020/12/05 09:12:03;;;;;;;8.33;4.33;;;;;;;0.05;4.44;2854668.50;5073621;28;20036;-88
2020/12/05 09:14:29;;;;;;;32.45;8.70;;;;;;;0.05;4.43;2789508.75;5073223;28;20039;-89
2020/12/05 09:16:55;;;;;;;14.27;7.80;;;;;;;0.05;4.42;2716571.00;5073603;28;20119;-90
2020/12/05 09:19:24;;;;;;;5.85;5.43;;;;;;;0.05;4.41;2642662.00;5073344;28;20036;-89
2020/12/05 09:21:50;;;;;;;11.57;5.72;;;;;;;0.05;4.42;2571672.00;5073462;28;20021;-88
2020/12/05 09:24:15;;;;;;;7.18;6.43;;;;;;;0.05;4.42;2483179.25;5072825;28;20056;-87
2020/12/05 09:26:58;;;;;;;8.07;5.65;;;;;;;0.05;4.41;2397606.25;5073256;28;20496;-87
2020/12/05 09:29:24;;;;;;;8.85;6.25;;;;;;;0.05;4.40;2317870.00;5073106;28;20036;-87
2020/12/05 09:31:55;;;;;;;7.38;6.60;;;;;;;0.05;4.40;2234246.25;5073098;28;20036;-86
2020/12/05 09:34:35;;;;;;;7.60;6.90;;;;;;;0.05;4.40;2164237.00;5072881;28;20526;-86
2020/12/05 09:37:09;;;;;;;10.93;6.78;;;;;;;0.05;4.39;2111731.25;5072994;28;20094;-88
2020/12/05 09:39:34;;;;;;;8.18;7.20;;;;;;;0.05;4.40;2095201.75;5072955;28;20036;-86
2020/12/05 09:42:00;;;;;;;7.35;4.38;;;;;;;0.06;4.39;2067977.38;5072709;28;20028;-87
2020/12/05 09:44:25;;;;;;;6.63;6.13;;;;;;;0.06;4.39;2054365.00;5072590;28;20028;-86
2020/12/05 09:46:51;;;;;;;6.45;4.68;;;;;;;0.05;4.40;2091312.50;5072506;28;20468;-87
2020/12/05 09:49:16;;;;;;;8.70;4.63;;;;;;;0.05;4.40;2100063.50;5072360;28;20039;-93
2020/12/05 09:51:41;;;;;;;6.72;5.13;;;;;;;0.05;4.40;2094229.50;5072761;28;20021;-89
2020/12/05 09:54:07;;;;;;;2.63;2.45;;;;;;;0.05;4.40;2094229.50;5072819;28;20040;-88
2020/12/05 09:56:32;;;;;;;4.63;3.42;;;;;;;0.05;4.40;2090340.13;5072920;28;20020;-83
2020/12/05 09:58:58;;;;;;;5.82;5.00;;;;;;;0.05;4.40;2110759.00;5072880;28;20059;-87
2020/12/05 10:01:27;;;;;;;1.40;1.33;;;;;;;0.05;4.40;2102008.00;5072380;28;20572;-86
2020/12/05 10:03:52;;;;;;;22.13;15.95;;;;;;;0.05;4.40;2080617.00;5072767;28;20025;-89
2020/12/05 10:06:18;;;;;;;8.13;7.10;;;;;;;0.05;4.40;2056309.25;5073528;28;20166;-88
2020/12/05 10:08:43;;;;;;;12.70;6.40;;;;;;;0.06;4.39;2019362.13;5071705;28;20039;-89
2020/12/05 10:11:09;;;;;;;4.97;4.57;;;;;;;0.06;4.39;1983387.38;5074682;28;20086;-91
2020/12/05 10:13:34;;;;;;;2.35;2.25;;;;;;;0.06;4.40;1963941.75;5074319;28;20036;-91
2020/12/05 10:16:00;;;;;;;2.60;2.47;;;;;;;0.06;4.39;1937690.25;5075687;28;20032;-91
2020/12/05 10:18:25;;;;;;;8.00;4.78;;;;;;;0.06;4.39;1914355.75;5073207;28;20032;-88
2020/12/05 10:20:51;;;;;;;7.25;2.45;;;;;;;0.06;4.39;1869631.75;5073662;28;20050;-85
2020/12/05 10:23:16;;;;;;;7.45;4.93;;;;;;;0.06;4.39;1821019.50;5072757;28;20030;-88
2020/12/05 10:25:42;;;;;;;7.22;6.65;;;;;;;0.06;4.38;1776296.75;5073768;28;20082;-90
2020/12/05 10:28:08;;;;;;;6.72;5.70;;;;;;;0.06;4.38;1734491.25;5073462;28;20056;-84
2020/12/05 10:30:33;;;;;;;9.30;7.03;;;;;;;0.06;4.38;1696575.25;5072093;28;20116;-86
2020/12/05 10:32:59;;;;;;;5.50;5.00;;;;;;;0.06;4.38;1667409.75;5072271;28;20029;-86
2020/12/05 10:35:24;;;;;;;6.72;4.65;;;;;;;0.06;4.38;1641160.50;5071991;28;20025;-84
2020/12/05 10:37:50;;;;;;;8.13;6.80;;;;;;;0.06;4.38;1630466.50;5071911;28;20039;-85
2020/12/05 10:40:15;;;;;;;6.63;6.22;;;;;;;0.06;4.38;1602273.25;5072068;28;20498;-86
2020/12/05 10:42:40;;;;;;;2.08;1.98;;;;;;;0.06;4.38;1573108.13;5072274;28;20033;-81
2020/12/05 10:45:06;;;;;;;4.57;4.28;;;;;;;0.06;4.37;1532277.38;5072892;28;20119;-84
2020/12/05 10:47:31;;;;;;;4.68;3.83;;;;;;;0.06;4.37;1501168.63;5071926;28;20025;-85
2020/12/05 10:49:57;;;;;;;5.10;4.45;;;;;;;0.06;4.37;1489502.88;5071914;28;20504;-87
2020/12/05 10:52:23;;;;;;;12.73;5.70;;;;;;;0.06;4.37;1466171.50;5071879;28;20429;-88
2020/12/05 10:54:48;;;;;;;13.15;4.63;;;;;;;0.06;4.37;1447701.00;5071682;28;20032;-85
2020/12/05 10:57:14;;;;;;;8.65;7.03;;;;;;;0.06;4.38;1430202.75;5071845;28;20480;-88
2020/12/05 10:59:39;;;;;;;20.42;15.48;;;;;;;0.06;4.38;1440896.13;5072679;28;20032;-86
2020/12/05 11:02:05;;;;;;;11.38;6.43;;;;;;;0.06;4.38;1437007.63;5074916;28;20033;-89
2020/12/05 11:04:30;;;;;;;4.57;3.60;;;;;;;0.06;4.38;1426314.25;5073276;28;20025;-88
2020/12/05 11:06:56;;;;;;;1.77;1.67;;;;;;;0.06;4.38;1402011.25;5078284;28;20086;-88
2020/12/05 11:09:22;;;;;;;2.33;2.22;;;;;;;0.06;4.38;1400067.00;5083429;28;20024;-86
2020/12/05 11:11:48;;;;;;;4.78;3.60;;;;;;;0.06;4.38;1378680.50;5079905;28;20550;-88
2020/12/05 11:14:14;;;;;;;10.40;4.07;;;;;;;0.06;4.38;1374792.00;5074106;28;20028;-90
2020/12/05 11:16:39;;;;;;;6.68;4.40;;;;;;;0.06;4.38;1371875.75;5072884;28;20020;-91
2020/12/05 11:19:05;;;;;;;4.82;3.78;;;;;;;0.06;4.38;1384513.13;5074082;28;20028;-90
2020/12/05 11:21:30;;;;;;;2.10;2.00;;;;;;;0.06;4.38;1391318.00;5076226;28;20667;-91
2020/12/05 11:23:56;;;;;;;2.67;2.58;;;;;;;0.06;4.38;1399094.88;5077505;28;20037;-89
2020/12/05 11:26:22;;;;;;;2.90;2.63;;;;;;;0.06;4.38;1409788.13;5079291;28;20044;-89
2020/12/05 11:28:49;;;;;;;7.13;6.40;;;;;;;0.06;4.39;1405899.75;5078730;28;20396;-89
2020/12/05 11:31:14;;;;;;;4.97;4.40;;;;;;;0.06;4.39;1387429.50;5078352;28;20032;-90
2020/12/05 11:33:40;;;;;;;5.85;4.78;;;;;;;0.06;4.39;1380624.75;5079225;28;20412;-90
2020/12/05 11:36:06;;;;;;;3.60;3.30;;;;;;;0.06;4.39;1368959.38;5077100;28;20085;-89
2020/12/05 11:38:31;;;;;;;3.33;3.10;;;;;;;0.06;4.39;1351461.50;5079581;28;20036;-84
2020/12/05 11:40:57;;;;;;;7.00;3.28;;;;;;;0.06;4.39;1358266.25;5079073;28;20040;-88